首页
METAR-TAF:

METAR-TAF

机场 :

埃文斯維爾, 印第安纳州, 美国

纬度: 38-02-35N, 经度: 087-31-13W, 海拔: 127米

当前天气观测

该预报发布于22分钟前的07:20 UTC
风速5节,风向北转西北
温度 9°C
湿度 81%
气压 1019 hPa
能見度: 16.1公里
散云层高于900英尺
阴天层高于11000英尺

METAR: KEVV 050720Z AUTO 34005KT 10SM SCT009 OVC110 09/06 A3008 RMK AO2 T00890061 $

时间: 02:42 (07:42 UTC)

预报

该预报发布于1小时和1分钟前的06:41 UTC
预报有效从05日的 07点(UTC)到 06日的 06点(UTC)
风速6节,风向
能見度: 10公里
阴天层高于1500英尺
从 05日的 2100点(UTC)
风速5节,风向西北
能見度: 10公里
多云层高于3500英尺

TAF: KEVV 050641Z 0507/0606 35006KT P6SM OVC015 FM052100 32005KT P6SM BKN035

超过4000个机场的气象观测和天气预报(METAR&TAF报告)。

可查询的气象台以黄色和红色小点在地图上表示。

将鼠标移到小点上方,可查看气象台名称。

然后点击查看天气观测和预报。

如需切换地图:点击带黑十字的绿色按钮放大地图;点击带横线的绿色按钮缩小地图;或者点击绿色箭头查看邻近地区的地图。


METAR-TAF: